createdAt,value
2022-09-14T00:01:55.359Z,8.03
2022-09-14T00:07:13.251Z,8.03
2022-09-14T00:12:30.209Z,7.8
2022-09-14T00:17:47.645Z,7.8
2022-09-14T00:23:03.808Z,7.79
2022-09-14T00:28:20.437Z,7.79
2022-09-14T00:33:37.932Z,7.96
2022-09-14T00:38:55.488Z,7.96
2022-09-14T00:44:14.047Z,8.17
2022-09-14T00:49:30.243Z,8.17
2022-09-14T00:54:40.626Z,7.95
2022-09-14T00:59:50.385Z,7.95
2022-09-14T01:05:00.223Z,8.06
2022-09-14T01:10:08.651Z,8.06
2022-09-14T01:15:18.384Z,7.94
2022-09-14T01:20:26.863Z,7.94
2022-09-14T01:24:49.804Z,8.14
2022-09-14T01:29:20.846Z,8.14
2022-09-14T01:34:29.969Z,8.21
2022-09-14T01:39:39.084Z,8.21
2022-09-14T01:44:48.837Z,7.93
2022-09-14T01:49:59.591Z,7.93
2022-09-14T01:55:08.373Z,7.88
2022-09-14T02:00:16.870Z,7.88
2022-09-14T02:05:27.250Z,7.72
2022-09-14T02:10:40.206Z,7.72
2022-09-14T02:15:49.769Z,7.85
2022-09-14T02:21:18.935Z,7.85
2022-09-14T02:26:32.481Z,7.74
2022-09-14T02:31:43.339Z,7.74
2022-09-14T02:36:52.040Z,7.78
2022-09-14T02:42:02.484Z,7.78
2022-09-14T02:47:16.686Z,7.85
2022-09-14T02:52:38.935Z,7.58
2022-09-14T02:57:40.068Z,7.58
2022-09-14T03:02:53.177Z,7.86
2022-09-14T03:08:02.801Z,7.86
2022-09-14T03:13:11.911Z,7.81
2022-09-14T03:18:21.051Z,7.81
2022-09-14T03:23:33.962Z,7.9
2022-09-14T03:28:48.214Z,7.9
2022-09-14T03:34:27.386Z,7.58
2022-09-14T03:39:36.523Z,7.58
2022-09-14T03:44:45.645Z,7.74
2022-09-14T03:49:54.761Z,7.74
2022-09-14T03:55:05.176Z,7.7
2022-09-14T04:00:24.673Z,7.7
2022-09-14T04:05:34.298Z,7.73
2022-09-14T04:10:46.638Z,7.73
2022-09-14T04:15:59.996Z,7.96
2022-09-14T04:21:26.622Z,7.96
2022-09-14T04:26:36.354Z,7.74
2022-09-14T04:32:06.542Z,7.74
2022-09-14T04:36:53.968Z,7.93
2022-09-14T04:42:02.440Z,7.93
2022-09-14T04:47:17.802Z,8.14
2022-09-14T04:52:34.448Z,8.14
2022-09-14T04:57:51.290Z,8.27
2022-09-14T05:03:08.155Z,8.27
2022-09-14T05:08:26.127Z,8.3
2022-09-14T05:13:45.175Z,7.85
2022-09-14T05:18:59.977Z,7.85
2022-09-14T05:24:16.041Z,8.04
2022-09-14T05:29:35.397Z,8.04
2022-09-14T05:34:52.206Z,7.81
2022-09-14T05:39:22.599Z,7.81
2022-09-14T05:43:52.531Z,7.94
2022-09-14T05:49:01.673Z,7.94
2022-09-14T05:54:10.782Z,8.13
2022-09-14T05:59:19.247Z,8.13
2022-09-14T06:04:29.013Z,7.85
2022-09-14T06:09:36.889Z,7.85
2022-09-14T06:14:48.465Z,7.84
2022-09-14T06:20:05.195Z,7.84
2022-09-14T06:25:08.037Z,7.76
2022-09-14T06:30:16.622Z,7.76
2022-09-14T06:35:25.645Z,7.75
2022-09-14T06:40:36.057Z,7.75
2022-09-14T06:45:44.519Z,7.7
2022-09-14T06:50:53.644Z,7.7
2022-09-14T06:56:03.430Z,8.33
2022-09-14T07:01:12.544Z,8.33
2022-09-14T07:06:21.093Z,7.56
2022-09-14T07:11:29.510Z,7.56
2022-09-14T07:16:39.235Z,7.63
2022-09-14T07:21:49.018Z,7.63
2022-09-14T07:26:58.774Z,7.8
2022-09-14T07:32:07.273Z,7.8
2022-09-14T07:37:16.454Z,7.71
2022-09-14T07:42:26.128Z,7.71
2022-09-14T07:47:35.256Z,7.77
2022-09-14T07:52:45.009Z,7.77
2022-09-14T07:57:57.124Z,7.5
2022-09-14T08:03:05.807Z,7.5
2022-09-14T08:08:15.574Z,7.76
2022-09-14T08:13:25.036Z,7.76
2022-09-14T08:18:33.833Z,7.49
2022-09-14T08:23:49.820Z,7.53
2022-09-14T08:29:05.974Z,7.53
2022-09-14T08:34:22.126Z,7.52
2022-09-14T08:39:38.763Z,7.52
2022-09-14T08:44:54.929Z,7.5
2022-09-14T08:50:12.609Z,7.5
2022-09-14T08:55:30.134Z,7.21
2022-09-14T09:00:47.930Z,7.21
2022-09-14T09:06:04.695Z,7.3
2022-09-14T09:11:21.643Z,7.3
2022-09-14T09:16:37.691Z,7.26
2022-09-14T09:21:03.963Z,7.26
2022-09-14T09:25:34.284Z,7.51
2022-09-14T09:30:44.042Z,7.51
2022-09-14T09:35:53.172Z,7.5
2022-09-14T09:41:02.930Z,7.5
2022-09-14T09:46:13.172Z,7.39
2022-09-14T09:51:24.422Z,7.39
2022-09-14T09:56:34.154Z,7.36
2022-09-14T10:02:02.901Z,7.36
2022-09-14T10:07:12.234Z,7.37
2022-09-14T10:12:23.894Z,7.37
2022-09-14T10:17:31.085Z,7.4
2022-09-14T10:22:43.420Z,7.4
2022-09-14T10:27:52.522Z,7.5
2022-09-14T10:33:02.446Z,7.5
2022-09-14T10:38:11.410Z,7.27
2022-09-14T10:43:21.803Z,7.27
2022-09-14T10:48:36.924Z,7.34
2022-09-14T10:53:45.814Z,7.34
2022-09-14T10:58:55.614Z,7.43
2022-09-14T11:04:04.041Z,7.43
2022-09-14T11:09:15.558Z,7.29
2022-09-14T11:19:47.892Z,7.35
2022-09-14T11:25:04.845Z,7.35
2022-09-14T11:30:20.844Z,7.44
2022-09-14T11:35:37.166Z,7.44
2022-09-14T11:37:15.992Z,7.44
2022-09-14T11:42:26.155Z,7.17
2022-09-14T11:44:46.078Z,7.17
2022-09-14T11:48:44.455Z,7.25
2022-09-14T11:53:32.369Z,7.25
2022-09-14T12:02:02.287Z,7.28
2022-09-14T12:07:19.386Z,7.27
2022-09-14T12:12:35.891Z,7.27
2022-09-14T12:18:05.700Z,7.34
2022-09-14T12:23:07.566Z,7.34
2022-09-14T12:23:57.589Z,7.34
2022-09-14T12:28:23.885Z,7.4
2022-09-14T12:29:13.878Z,7.4
2022-09-14T12:33:40.608Z,7.4
2022-09-14T12:34:30.531Z,7.4
2022-09-14T12:38:57.315Z,7.42
2022-09-14T12:39:47.402Z,7.42
2022-09-14T12:44:14.435Z,7.42
2022-09-14T12:45:04.440Z,7.42
2022-09-14T12:49:32.027Z,7.28
2022-09-14T12:50:44.289Z,7.28
2022-09-14T12:55:53.165Z,7.2
2022-09-14T12:56:33.097Z,7.2
2022-09-14T13:01:14.099Z,7.2
2022-09-14T13:05:20.821Z,7.2
2022-09-14T13:10:36.225Z,7.14
2022-09-14T13:15:54.400Z,7.14
2022-09-14T13:21:09.850Z,7.25
2022-09-14T13:26:25.343Z,7.22
2022-09-14T13:27:15.344Z,7.22
2022-09-14T13:36:55.739Z,7.45
2022-09-14T13:37:48.274Z,7.45
2022-09-14T13:42:12.540Z,7.45
2022-09-14T13:43:02.540Z,7.45
2022-09-14T13:47:27.447Z,7.42
2022-09-14T13:48:17.448Z,7.42
2022-09-14T13:53:04.907Z,7.42
2022-09-14T13:53:41.323Z,7.42
2022-09-14T13:58:00.517Z,7.29
2022-09-14T13:58:47.214Z,7.29
2022-09-14T14:03:21.156Z,7.29
2022-09-14T14:04:02.715Z,7.29
2022-09-14T14:08:41.831Z,7.41
2022-09-14T14:09:21.760Z,7.41
2022-09-14T14:13:59.879Z,7.41
2022-09-14T14:14:39.818Z,7.41
2022-09-14T14:19:19.249Z,7.27
2022-09-14T14:20:01.792Z,7.27
2022-09-14T14:25:15.975Z,7.35
2022-09-14T14:25:53.779Z,7.35
2022-09-14T14:30:29.971Z,7.35
2022-09-14T14:31:09.898Z,7.35
2022-09-14T14:35:52.523Z,7.23
2022-09-14T14:36:32.466Z,7.23
2022-09-14T14:41:09.960Z,7.23
2022-09-14T14:41:49.928Z,7.23
2022-09-14T14:46:27.646Z,7.14
2022-09-14T14:47:07.374Z,7.14
2022-09-14T14:51:45.480Z,7.14
2022-09-14T14:52:25.409Z,7.14
2022-09-14T14:57:02.931Z,7.19
2022-09-14T14:57:42.861Z,7.19
2022-09-14T15:02:19.725Z,7.19
2022-09-14T15:02:59.667Z,7.19
2022-09-14T15:07:39.062Z,7.35
2022-09-14T15:08:19.004Z,7.35
2022-09-14T15:12:58.455Z,7.35
2022-09-14T15:13:38.381Z,7.35
2022-09-14T15:18:15.879Z,7.38
2022-09-14T15:18:55.823Z,7.38
2022-09-14T15:23:32.693Z,7.38
2022-09-14T15:24:12.632Z,7.38
2022-09-14T15:28:52.665Z,7.35
2022-09-14T15:29:32.603Z,7.35
2022-09-14T15:34:10.766Z,7.35
2022-09-14T15:34:50.706Z,7.35
2022-09-14T15:39:28.849Z,7.3
2022-09-14T15:40:08.882Z,7.3
2022-09-14T15:49:08.074Z,7.3
2022-09-14T15:54:24.701Z,7.45
2022-09-14T15:59:41.483Z,7.52
2022-09-14T16:04:56.467Z,7.52
2022-09-14T16:10:12.572Z,7.51
2022-09-14T16:15:30.652Z,7.51
2022-09-14T16:20:46.147Z,7.38
2022-09-14T16:26:00.413Z,7.38
2022-09-14T16:31:15.285Z,7.37
2022-09-14T16:36:32.704Z,7.37
2022-09-14T16:41:48.865Z,7.48
2022-09-14T16:47:05.058Z,7.48
2022-09-14T16:52:21.194Z,7.37
2022-09-14T16:57:36.251Z,7.37
2022-09-14T17:02:50.947Z,7.66
2022-09-14T17:08:06.461Z,7.69
2022-09-14T17:13:21.375Z,7.69
2022-09-14T17:18:36.860Z,7.73
2022-09-14T17:23:52.380Z,7.73
2022-09-14T17:24:42.381Z,7.73
2022-09-14T17:29:07.260Z,7.98
2022-09-14T17:29:57.268Z,7.98
2022-09-14T17:34:24.132Z,7.98
2022-09-14T17:35:14.134Z,7.98
2022-09-14T17:39:40.222Z,7.95
2022-09-14T17:40:30.265Z,7.95
2022-09-14T17:44:55.778Z,7.95
2022-09-14T17:45:45.777Z,7.95
2022-09-14T17:50:10.642Z,7.95
2022-09-14T17:51:00.650Z,7.95
2022-09-14T17:55:26.171Z,7.95
2022-09-14T17:56:16.171Z,7.95
2022-09-14T18:00:41.050Z,7.85
2022-09-14T18:01:31.099Z,7.85
2022-09-14T18:05:57.821Z,7.85
2022-09-14T18:06:47.838Z,7.85
2022-09-14T18:11:13.976Z,7.81
2022-09-14T18:12:03.973Z,7.81
2022-09-14T18:16:30.179Z,8.11
2022-09-14T18:23:15.162Z,8.11
2022-09-14T18:28:25.807Z,8.11
2022-09-14T18:29:05.752Z,8.11
2022-09-14T18:33:41.325Z,8.11
2022-09-14T18:34:21.264Z,8.11
2022-09-14T18:38:58.982Z,7.85
2022-09-14T18:39:38.797Z,7.85
2022-09-14T18:44:17.481Z,7.85
2022-09-14T18:44:57.430Z,7.85
2022-09-14T18:49:38.770Z,7.97
2022-09-14T18:50:18.700Z,7.97
2022-09-14T18:54:55.596Z,7.97
2022-09-14T18:55:35.517Z,7.97
2022-09-14T19:00:19.060Z,7.76
2022-09-14T19:00:58.426Z,7.76
2022-09-14T19:05:29.836Z,7.76
2022-09-14T19:06:09.749Z,7.76
2022-09-14T19:10:46.641Z,7.72
2022-09-14T19:11:26.558Z,7.72
2022-09-14T19:16:07.096Z,7.72
2022-09-14T19:16:46.604Z,7.72
2022-09-14T19:21:27.227Z,7.71
2022-09-14T19:30:13.180Z,7.57
2022-09-14T19:31:03.182Z,7.57
2022-09-14T19:35:28.699Z,7.57
2022-09-14T19:40:44.864Z,7.59
2022-09-14T19:46:01.167Z,7.59
2022-09-14T19:51:15.884Z,7.64
2022-09-14T19:56:31.454Z,7.64
2022-09-14T20:01:46.417Z,7.75
2022-09-14T20:07:01.244Z,7.75
2022-09-14T20:12:16.708Z,7.65
2022-09-14T20:17:32.222Z,7.65
2022-09-14T20:22:48.412Z,7.74
2022-09-14T20:28:04.542Z,7.74
2022-09-14T20:33:20.703Z,7.87
2022-09-14T20:38:36.856Z,8
2022-09-14T20:43:54.304Z,8
2022-09-14T20:44:44.305Z,8
2022-09-14T20:49:10.515Z,7.92
2022-09-14T20:50:00.521Z,7.92
2022-09-14T20:54:30.724Z,7.92
2022-09-14T20:55:20.714Z,7.92
2022-09-14T20:59:42.142Z,8.04
2022-09-14T21:00:32.149Z,8.04
2022-09-14T21:04:58.335Z,8.04
2022-09-14T21:05:48.336Z,8.04
2022-09-14T21:10:13.179Z,7.96
2022-09-14T21:11:03.180Z,7.96
2022-09-14T21:15:29.372Z,7.96
2022-09-14T21:16:19.402Z,7.96
2022-09-14T21:20:46.142Z,8.17
2022-09-14T21:21:36.131Z,8.17
2022-09-14T21:26:02.338Z,8.17
2022-09-14T21:26:52.338Z,8.17
2022-09-14T21:31:20.432Z,8.01
2022-09-14T21:32:10.379Z,8.01
2022-09-14T21:36:35.904Z,8.01
2022-09-14T21:37:25.902Z,8.01
2022-09-14T21:41:55.898Z,8.19
2022-09-14T21:42:41.424Z,8.19
2022-09-14T21:47:06.979Z,8.19
2022-09-14T21:47:56.977Z,8.19
2022-09-14T21:52:20.549Z,8.18
2022-09-14T21:53:10.543Z,8.18
2022-09-14T21:57:37.343Z,8.18
2022-09-14T21:58:27.342Z,8.18
2022-09-14T22:02:52.879Z,8.14
2022-09-14T22:03:42.861Z,8.14
2022-09-14T22:08:08.379Z,8.11
2022-09-14T22:08:58.381Z,8.11
2022-09-14T22:13:24.557Z,8.11
2022-09-14T22:14:14.553Z,8.11
2022-09-14T22:18:39.565Z,8.09
2022-09-14T22:19:29.566Z,8.09
2022-09-14T22:23:54.941Z,8.09
2022-09-14T22:24:44.939Z,8.09
2022-09-14T22:29:11.137Z,8.09
2022-09-14T22:34:27.358Z,8.09
2022-09-14T22:35:17.359Z,8.09
2022-09-14T22:39:42.779Z,8.07
2022-09-14T22:40:32.814Z,8.07
2022-09-14T22:44:58.947Z,8.07
2022-09-14T22:50:15.139Z,8.06
2022-09-14T22:51:05.136Z,8.06
2022-09-14T22:55:31.264Z,8.06
2022-09-14T22:56:21.266Z,8.06
2022-09-14T23:00:50.011Z,8.1
2022-09-14T23:06:04.958Z,8.1
2022-09-14T23:06:54.956Z,8.1
2022-09-14T23:11:20.414Z,8.18
2022-09-14T23:12:10.413Z,8.18
2022-09-14T23:16:36.598Z,8.18
2022-09-14T23:17:26.556Z,8.18
2022-09-14T23:21:53.399Z,8.07
2022-09-14T23:22:43.370Z,8.07
2022-09-14T23:27:09.495Z,8.07
2022-09-14T23:27:59.506Z,8.07
2022-09-14T23:32:25.687Z,8.07
2022-09-14T23:33:15.668Z,8.07
2022-09-14T23:37:40.541Z,8.15
2022-09-14T23:38:30.541Z,8.15
2022-09-14T23:42:55.471Z,8.15
2022-09-14T23:43:45.461Z,8.15
2022-09-14T23:48:11.605Z,8.26
2022-09-14T23:49:01.611Z,8.26
2022-09-14T23:53:27.105Z,8.26
2022-09-14T23:54:17.104Z,8.26
2022-09-14T23:58:42.152Z,8.29
2022-09-14T23:59:32.022Z,8.29
